createdAt,value
2019-03-27T00:00:09.587Z,8.03
2019-03-27T00:01:09.613Z,7.99
2019-03-27T00:02:09.638Z,8.04
2019-03-27T00:03:09.662Z,8.01
2019-03-27T00:04:09.686Z,7.96
2019-03-27T00:05:09.713Z,7.96
2019-03-27T00:06:09.732Z,8.03
2019-03-27T00:07:09.765Z,8.07
2019-03-27T00:08:09.788Z,7.99
2019-03-27T00:09:09.806Z,7.96
2019-03-27T00:10:09.832Z,8.01
2019-03-27T00:11:09.857Z,8.03
2019-03-27T00:12:09.883Z,7.99
2019-03-27T00:13:09.904Z,8.01
2019-03-27T00:14:09.931Z,8.03
2019-03-27T00:15:13.292Z,7.99
2019-03-27T00:16:09.979Z,7.96
2019-03-27T00:17:10.001Z,8.06
2019-03-27T00:18:10.025Z,7.98
2019-03-27T00:19:10.053Z,7.96
2019-03-27T00:20:10.076Z,8.06
2019-03-27T00:21:10.099Z,8.03
2019-03-27T00:22:10.127Z,8.01
2019-03-27T00:23:10.147Z,7.95
2019-03-27T00:24:10.172Z,7.98
2019-03-27T00:25:10.198Z,7.98
2019-03-27T00:26:10.224Z,7.95
2019-03-27T00:27:10.245Z,7.96
2019-03-27T00:28:10.273Z,7.99
2019-03-27T00:29:10.294Z,7.99
2019-03-27T00:30:10.321Z,8.04
2019-03-27T00:31:11.804Z,7.98
2019-03-27T00:32:10.367Z,8.06
2019-03-27T00:33:10.391Z,8.06
2019-03-27T00:34:10.416Z,7.95
2019-03-27T00:35:10.520Z,8.01
2019-03-27T00:36:10.463Z,8.01
2019-03-27T00:37:10.487Z,7.96
2019-03-27T00:38:10.513Z,7.98
2019-03-27T00:39:10.537Z,7.98
2019-03-27T00:40:10.566Z,7.89
2019-03-27T00:41:10.592Z,7.82
2019-03-27T00:42:10.610Z,7.88
2019-03-27T00:43:10.636Z,7.83
2019-03-27T00:44:10.658Z,7.89
2019-03-27T00:45:10.683Z,7.88
2019-03-27T00:46:10.708Z,7.74
2019-03-27T00:47:10.733Z,7.80
2019-03-27T00:48:10.756Z,7.78
2019-03-27T00:49:10.782Z,7.78
2019-03-27T00:50:10.808Z,7.70
2019-03-27T00:51:10.827Z,7.73
2019-03-27T00:52:10.856Z,7.68
2019-03-27T00:53:10.880Z,7.61
2019-03-27T00:54:10.910Z,7.67
2019-03-27T00:55:10.928Z,7.63
2019-03-27T00:56:10.957Z,7.71
2019-03-27T00:57:10.975Z,7.55
2019-03-27T00:58:11.002Z,7.64
2019-03-27T00:59:11.030Z,7.58
2019-03-27T01:00:11.051Z,7.56
2019-03-27T01:01:11.074Z,7.48
2019-03-27T01:02:11.097Z,7.39
2019-03-27T01:03:11.119Z,7.41
2019-03-27T01:04:11.147Z,7.45
2019-03-27T01:05:11.172Z,7.47
2019-03-27T01:06:11.202Z,7.44
2019-03-27T01:07:11.219Z,7.41
2019-03-27T01:08:11.248Z,7.34
2019-03-27T01:09:11.267Z,7.44
2019-03-27T01:10:11.294Z,7.27
2019-03-27T01:11:11.312Z,7.37
2019-03-27T01:12:11.338Z,7.23
2019-03-27T01:13:11.364Z,7.26
2019-03-27T01:14:11.388Z,7.29
2019-03-27T01:15:11.420Z,7.26
2019-03-27T01:16:11.435Z,7.27
2019-03-27T01:17:11.459Z,7.21
2019-03-27T01:18:11.492Z,7.13
2019-03-27T01:19:11.507Z,7.19
2019-03-27T01:20:11.531Z,7.11
2019-03-27T01:21:11.558Z,7.11
2019-03-27T01:22:11.583Z,7.15
2019-03-27T01:23:11.603Z,7.05
2019-03-27T01:24:11.628Z,7.11
2019-03-27T01:25:11.652Z,7.09
2019-03-27T01:26:11.675Z,7.15
2019-03-27T01:27:11.707Z,7.04
2019-03-27T01:28:11.726Z,7.05
2019-03-27T01:29:11.747Z,7.12
2019-03-27T01:30:11.775Z,7.11
2019-03-27T01:31:11.798Z,7.08
2019-03-27T01:32:11.821Z,7.12
2019-03-27T01:33:11.848Z,7.09
2019-03-27T01:34:11.875Z,7.08
2019-03-27T01:35:11.892Z,7.05
2019-03-27T01:36:11.919Z,7.08
2019-03-27T01:37:11.952Z,7.08
2019-03-27T01:38:11.965Z,7.03
2019-03-27T01:39:11.990Z,7.12
2019-03-27T01:40:12.022Z,7.08
2019-03-27T01:41:12.037Z,7.12
2019-03-27T01:42:12.063Z,7.04
2019-03-27T01:43:12.094Z,7.11
2019-03-27T01:44:12.125Z,7.15
2019-03-27T01:45:12.136Z,7.16
2019-03-27T01:46:12.159Z,7.11
2019-03-27T01:47:12.182Z,7.08
2019-03-27T01:48:12.213Z,7.16
2019-03-27T01:49:12.234Z,7.11
2019-03-27T01:50:12.261Z,7.01
2019-03-27T01:51:12.287Z,7.00
2019-03-27T01:52:12.303Z,7.01
2019-03-27T01:53:12.336Z,7.00
2019-03-27T01:54:12.363Z,6.95
2019-03-27T01:55:12.377Z,7.01
2019-03-27T01:56:12.400Z,7.00
2019-03-27T01:57:12.428Z,6.98
2019-03-27T01:58:12.450Z,6.95
2019-03-27T01:59:12.471Z,6.91
2019-03-27T02:00:12.497Z,6.85
2019-03-27T02:01:12.519Z,6.95
2019-03-27T02:02:12.546Z,6.90
2019-03-27T02:03:12.569Z,6.98
2019-03-27T02:04:12.593Z,6.98
2019-03-27T02:05:12.623Z,7.01
2019-03-27T02:06:12.642Z,6.91
2019-03-27T02:07:12.662Z,6.83
2019-03-27T02:08:12.687Z,6.83
2019-03-27T02:09:12.714Z,6.82
2019-03-27T02:10:12.735Z,6.85
2019-03-27T02:11:12.764Z,6.75
2019-03-27T02:12:12.794Z,6.76
2019-03-27T02:13:12.809Z,6.67
2019-03-27T02:14:12.836Z,6.72
2019-03-27T02:15:12.858Z,6.75
2019-03-27T02:16:12.881Z,6.72
2019-03-27T02:17:12.905Z,6.76
2019-03-27T02:18:12.930Z,6.80
2019-03-27T02:19:12.956Z,6.73
2019-03-27T02:20:12.978Z,6.70
2019-03-27T02:21:12.998Z,6.75
2019-03-27T02:22:13.025Z,6.60
2019-03-27T02:23:13.051Z,6.75
2019-03-27T02:24:13.077Z,6.62
2019-03-27T02:25:13.094Z,6.62
2019-03-27T02:26:13.120Z,6.60
2019-03-27T02:27:13.144Z,6.72
2019-03-27T02:28:13.168Z,6.60
2019-03-27T02:29:13.191Z,6.65
2019-03-27T02:30:13.219Z,6.75
2019-03-27T02:31:13.244Z,6.67
2019-03-27T02:32:13.263Z,6.65
2019-03-27T02:33:13.298Z,6.60
2019-03-27T02:34:13.312Z,6.64
2019-03-27T02:35:13.333Z,6.58
2019-03-27T02:36:13.366Z,6.62
2019-03-27T02:37:13.390Z,6.54
2019-03-27T02:38:13.411Z,6.52
2019-03-27T02:39:13.431Z,6.42
2019-03-27T02:40:13.453Z,6.49
2019-03-27T02:41:13.480Z,6.44
2019-03-27T02:42:13.501Z,6.49
2019-03-27T02:43:13.533Z,6.47
2019-03-27T02:44:13.557Z,6.43
2019-03-27T02:45:13.578Z,6.43
2019-03-27T02:46:24.562Z,6.51
2019-03-27T02:47:13.624Z,6.44
2019-03-27T02:48:14.224Z,6.42
2019-03-27T02:49:13.674Z,6.42
2019-03-27T02:50:13.698Z,6.37
2019-03-27T02:51:13.713Z,6.40
2019-03-27T02:52:13.745Z,6.36
2019-03-27T02:53:13.764Z,6.40
2019-03-27T02:54:13.804Z,6.39
2019-03-27T02:55:13.818Z,6.42
2019-03-27T02:56:13.840Z,6.42
2019-03-27T02:57:13.857Z,6.40
2019-03-27T02:58:13.883Z,6.33
2019-03-27T02:59:13.904Z,6.42
2019-03-27T03:00:13.931Z,6.40
2019-03-27T03:01:13.956Z,6.39
2019-03-27T03:02:13.987Z,6.40
2019-03-27T03:03:14.007Z,6.40
2019-03-27T03:04:14.024Z,6.42
2019-03-27T03:05:14.061Z,6.36
2019-03-27T03:06:14.081Z,6.39
2019-03-27T03:07:14.103Z,6.37
2019-03-27T03:08:14.130Z,6.37
2019-03-27T03:09:14.153Z,6.31
2019-03-27T03:10:14.168Z,6.44
2019-03-27T03:11:14.196Z,6.37
2019-03-27T03:12:14.222Z,6.40
2019-03-27T03:13:14.242Z,6.36
2019-03-27T03:14:14.263Z,6.37
2019-03-27T03:15:14.288Z,6.40
2019-03-27T03:16:14.311Z,6.42
2019-03-27T03:17:14.336Z,6.40
2019-03-27T03:18:14.361Z,6.37
2019-03-27T03:19:14.387Z,6.46
2019-03-27T03:20:14.407Z,6.46
2019-03-27T03:21:14.437Z,6.40
2019-03-27T03:22:14.460Z,6.42
2019-03-27T03:23:14.485Z,6.43
2019-03-27T03:24:14.505Z,6.43
2019-03-27T03:25:14.529Z,6.43
2019-03-27T03:26:14.557Z,6.46
2019-03-27T03:27:14.586Z,6.46
2019-03-27T03:28:14.602Z,6.57
2019-03-27T03:29:14.639Z,6.49
2019-03-27T03:30:14.667Z,6.51
2019-03-27T03:31:14.674Z,6.49
2019-03-27T03:32:14.725Z,6.57
2019-03-27T03:33:14.719Z,6.62
2019-03-27T03:34:14.772Z,6.57
2019-03-27T03:35:14.769Z,6.58
2019-03-27T03:36:14.793Z,6.52
2019-03-27T03:37:14.817Z,6.54
2019-03-27T03:38:14.920Z,6.55
2019-03-27T03:39:14.870Z,6.52
2019-03-27T03:40:14.889Z,6.57
2019-03-27T03:41:14.917Z,6.49
2019-03-27T03:42:14.932Z,6.47
2019-03-27T03:43:14.966Z,6.46
2019-03-27T03:44:14.981Z,6.49
2019-03-27T03:45:15.010Z,6.46
2019-03-27T03:46:15.036Z,6.46
2019-03-27T03:47:15.054Z,6.47
2019-03-27T03:48:15.084Z,6.55
2019-03-27T03:49:15.104Z,6.55
2019-03-27T03:50:15.125Z,6.51
2019-03-27T03:51:15.152Z,6.51
2019-03-27T03:52:15.171Z,6.52
2019-03-27T03:53:15.227Z,6.43
2019-03-27T03:54:15.221Z,6.44
2019-03-27T03:55:15.248Z,6.40
2019-03-27T03:56:15.274Z,6.54
2019-03-27T03:57:15.300Z,6.54
2019-03-27T03:58:15.316Z,6.54
2019-03-27T03:59:15.340Z,6.57
2019-03-27T04:00:15.372Z,6.51
2019-03-27T04:01:15.389Z,6.55
2019-03-27T04:02:15.413Z,6.58
2019-03-27T04:03:15.434Z,6.54
2019-03-27T04:04:15.458Z,6.61
2019-03-27T04:05:15.482Z,6.57
2019-03-27T04:06:15.505Z,6.67
2019-03-27T04:07:15.531Z,6.73
2019-03-27T04:08:15.554Z,6.68
2019-03-27T04:09:15.580Z,6.68
2019-03-27T04:10:15.603Z,6.72
2019-03-27T04:11:15.627Z,6.78
2019-03-27T04:12:15.650Z,6.75
2019-03-27T04:13:15.675Z,6.75
2019-03-27T04:14:15.833Z,6.73
2019-03-27T04:15:15.725Z,6.73
2019-03-27T04:16:15.743Z,6.72
2019-03-27T04:17:17.860Z,6.76
2019-03-27T04:18:15.797Z,6.73
2019-03-27T04:19:15.819Z,6.86
2019-03-27T04:20:15.839Z,6.85
2019-03-27T04:21:15.871Z,6.73
2019-03-27T04:22:15.893Z,6.80
2019-03-27T04:23:15.913Z,6.82
2019-03-27T04:24:15.937Z,6.68
2019-03-27T04:25:15.966Z,6.85
2019-03-27T04:26:15.986Z,6.80
2019-03-27T04:27:16.010Z,6.88
2019-03-27T04:28:16.033Z,6.90
2019-03-27T04:29:16.055Z,6.97
2019-03-27T04:30:16.083Z,6.98
2019-03-27T04:31:16.101Z,6.93
2019-03-27T04:32:16.135Z,6.95
2019-03-27T04:33:16.148Z,6.94
2019-03-27T04:34:16.184Z,6.95
2019-03-27T04:35:16.206Z,6.97
2019-03-27T04:36:16.230Z,7.00
2019-03-27T04:37:16.249Z,6.97
2019-03-27T04:38:16.280Z,6.98
2019-03-27T04:39:16.295Z,6.94
2019-03-27T04:40:16.321Z,7.01
2019-03-27T04:41:16.341Z,6.93
2019-03-27T04:42:16.374Z,6.93
2019-03-27T04:43:16.402Z,7.01
2019-03-27T04:44:16.424Z,6.94
2019-03-27T04:45:16.439Z,6.90
2019-03-27T04:46:16.465Z,6.94
2019-03-27T04:47:31.191Z,6.93
2019-03-27T04:48:16.513Z,6.93
2019-03-27T04:49:16.538Z,6.94
2019-03-27T04:50:16.561Z,6.97
2019-03-27T04:51:16.588Z,6.93
2019-03-27T04:52:16.609Z,6.90
2019-03-27T04:53:16.629Z,7.00
2019-03-27T04:54:16.655Z,7.01
2019-03-27T04:55:16.686Z,7.08
2019-03-27T04:56:16.705Z,7.03
2019-03-27T04:57:16.728Z,7.00
2019-03-27T04:58:16.750Z,6.98
2019-03-27T04:59:16.777Z,7.13
2019-03-27T05:00:16.801Z,6.98
2019-03-27T05:01:16.826Z,7.05
2019-03-27T05:02:16.847Z,7.03
2019-03-27T05:03:16.869Z,7.01
2019-03-27T05:04:16.894Z,7.00
2019-03-27T05:05:16.919Z,7.01
2019-03-27T05:06:16.945Z,7.05
2019-03-27T05:07:16.967Z,7.01
2019-03-27T05:08:16.994Z,7.05
2019-03-27T05:09:17.018Z,7.00
2019-03-27T05:10:17.042Z,6.95
2019-03-27T05:11:17.065Z,7.05
2019-03-27T05:12:17.089Z,7.08
2019-03-27T05:13:17.111Z,7.09
2019-03-27T05:14:17.135Z,7.16
2019-03-27T05:15:17.161Z,7.15
2019-03-27T05:16:17.185Z,7.23
2019-03-27T05:17:17.216Z,7.16
2019-03-27T05:18:17.238Z,7.08
2019-03-27T05:19:17.255Z,7.09
2019-03-27T05:20:17.290Z,7.09
2019-03-27T05:21:17.313Z,7.05
2019-03-27T05:22:17.337Z,7.05
2019-03-27T05:23:17.354Z,7.11
2019-03-27T05:24:17.375Z,7.08
2019-03-27T05:25:17.409Z,7.08
2019-03-27T05:26:17.428Z,7.13
2019-03-27T05:27:17.451Z,7.04
2019-03-27T05:28:17.471Z,7.13
2019-03-27T05:29:17.496Z,7.13
2019-03-27T05:30:17.523Z,7.21
2019-03-27T05:31:17.544Z,7.21
2019-03-27T05:32:17.571Z,7.19
2019-03-27T05:33:17.595Z,7.18
2019-03-27T05:34:17.617Z,7.22
2019-03-27T05:35:17.640Z,7.23
2019-03-27T05:36:17.665Z,7.19
2019-03-27T05:37:17.692Z,7.16
2019-03-27T05:38:17.725Z,7.16
2019-03-27T05:39:17.741Z,7.27
2019-03-27T05:40:17.760Z,7.18
2019-03-27T05:41:17.794Z,7.21
2019-03-27T05:42:17.816Z,7.21
2019-03-27T05:43:17.833Z,7.16
2019-03-27T05:44:17.856Z,7.21
2019-03-27T05:45:17.885Z,7.23
2019-03-27T05:46:17.952Z,7.16
2019-03-27T05:47:17.930Z,7.13
2019-03-27T05:48:17.962Z,7.26
2019-03-27T05:49:17.993Z,7.22
2019-03-27T05:50:18.031Z,7.29
2019-03-27T05:51:18.030Z,7.33
2019-03-27T05:52:18.053Z,7.30
2019-03-27T05:53:18.075Z,7.39
2019-03-27T05:54:18.102Z,7.44
2019-03-27T05:55:18.125Z,7.45
2019-03-27T05:56:18.154Z,7.47
2019-03-27T05:57:18.174Z,7.47
2019-03-27T05:58:18.198Z,7.45
2019-03-27T05:59:18.219Z,7.30
2019-03-27T06:00:18.247Z,7.41
2019-03-27T06:01:18.271Z,7.31
2019-03-27T06:02:18.296Z,7.37
2019-03-27T06:03:18.315Z,7.33
2019-03-27T06:04:18.346Z,7.44
2019-03-27T06:05:18.380Z,7.33
2019-03-27T06:06:18.392Z,7.30
2019-03-27T06:07:18.418Z,7.29
2019-03-27T06:08:18.445Z,7.44
2019-03-27T06:09:18.470Z,7.45
2019-03-27T06:10:18.495Z,7.45
2019-03-27T06:11:18.515Z,7.51
2019-03-27T06:12:18.535Z,7.48
2019-03-27T06:13:18.562Z,7.52
2019-03-27T06:14:18.583Z,7.49
2019-03-27T06:15:18.610Z,7.47
2019-03-27T06:16:18.639Z,7.44
2019-03-27T06:17:18.665Z,7.49
2019-03-27T06:18:18.689Z,7.59
2019-03-27T06:19:18.707Z,7.56
2019-03-27T06:20:18.730Z,7.55
2019-03-27T06:21:18.755Z,7.52
2019-03-27T06:22:18.781Z,7.58
2019-03-27T06:23:18.810Z,7.51
2019-03-27T06:24:18.831Z,7.51
2019-03-27T06:25:18.854Z,7.64
2019-03-27T06:26:18.882Z,7.63
2019-03-27T06:27:18.909Z,7.78
2019-03-27T06:28:18.930Z,7.77
2019-03-27T06:29:18.951Z,7.73
2019-03-27T06:30:18.975Z,7.73
2019-03-27T06:31:18.998Z,7.63
2019-03-27T06:32:19.029Z,7.78
2019-03-27T06:33:19.045Z,7.86
2019-03-27T06:34:19.072Z,7.82
2019-03-27T06:35:20.293Z,7.88
2019-03-27T06:36:19.118Z,7.91
2019-03-27T06:37:19.143Z,7.92
2019-03-27T06:38:19.168Z,7.96
2019-03-27T06:39:19.190Z,7.85
2019-03-27T06:40:19.219Z,7.82
2019-03-27T06:41:19.241Z,7.68
2019-03-27T06:42:19.268Z,7.73
2019-03-27T06:43:19.295Z,7.64
2019-03-27T06:44:19.314Z,7.67
2019-03-27T06:45:19.340Z,7.61
2019-03-27T06:46:19.364Z,7.77
2019-03-27T06:47:19.391Z,7.61
2019-03-27T06:48:26.260Z,7.71
2019-03-27T06:49:19.445Z,7.68
2019-03-27T06:50:19.465Z,7.67
2019-03-27T06:51:19.485Z,7.68
2019-03-27T06:52:19.510Z,7.63
2019-03-27T06:53:19.541Z,7.63
2019-03-27T06:54:19.584Z,7.61
2019-03-27T06:55:19.582Z,7.64
2019-03-27T06:56:19.614Z,7.63
2019-03-27T06:57:19.633Z,7.63
2019-03-27T06:58:19.658Z,7.73
2019-03-27T06:59:19.682Z,7.82
2019-03-27T07:00:19.713Z,7.80
2019-03-27T07:01:19.731Z,7.88
2019-03-27T07:02:19.758Z,7.75
2019-03-27T07:03:19.782Z,7.83
2019-03-27T07:04:19.813Z,7.93
2019-03-27T07:05:19.831Z,8.03
2019-03-27T07:06:19.860Z,8.13
2019-03-27T07:07:19.878Z,8.29
2019-03-27T07:08:19.903Z,8.28
2019-03-27T07:09:19.927Z,8.21
2019-03-27T07:10:19.952Z,8.19
2019-03-27T07:11:19.977Z,8.26
2019-03-27T07:12:21.415Z,8.25
2019-03-27T07:13:20.027Z,8.32
2019-03-27T07:14:20.050Z,8.28
2019-03-27T07:15:20.077Z,8.21
2019-03-27T07:16:20.101Z,8.34
2019-03-27T07:17:20.126Z,8.43
2019-03-27T07:18:20.151Z,8.32
2019-03-27T07:19:20.173Z,8.39
2019-03-27T07:20:20.200Z,8.29
2019-03-27T07:21:20.225Z,8.29
2019-03-27T07:22:20.252Z,8.42
2019-03-27T07:23:20.375Z,8.39
2019-03-27T07:25:20.320Z,8.61
2019-03-27T07:26:20.344Z,8.64
2019-03-27T07:27:20.372Z,8.71
2019-03-27T07:28:20.398Z,8.76
2019-03-27T07:29:20.422Z,8.79
2019-03-27T07:30:20.454Z,8.79
2019-03-27T07:31:20.471Z,8.64
2019-03-27T07:32:20.504Z,8.76
2019-03-27T07:33:20.521Z,8.76
2019-03-27T07:34:20.544Z,8.80
2019-03-27T07:35:20.577Z,8.89
2019-03-27T07:36:20.602Z,8.92
2019-03-27T07:37:20.630Z,8.90
2019-03-27T07:38:20.647Z,8.90
2019-03-27T07:39:20.668Z,8.94
2019-03-27T07:40:20.697Z,8.77
2019-03-27T07:41:20.722Z,8.77
2019-03-27T07:42:20.756Z,8.62
2019-03-27T07:43:20.773Z,8.68
2019-03-27T07:44:20.801Z,8.53
2019-03-27T07:45:20.823Z,8.74
2019-03-27T07:46:20.848Z,8.82
2019-03-27T07:47:20.872Z,8.92
2019-03-27T07:48:20.906Z,9.19
2019-03-27T07:49:20.924Z,9.62
2019-03-27T07:50:20.949Z,9.89
2019-03-27T07:51:20.974Z,9.60
2019-03-27T07:52:21.004Z,9.55
2019-03-27T07:53:22.453Z,9.50
2019-03-27T07:54:21.051Z,9.39
2019-03-27T07:55:21.083Z,9.41
2019-03-27T07:56:21.101Z,10.05
2019-03-27T07:57:21.128Z,10.11
2019-03-27T07:58:21.153Z,10.65
2019-03-27T07:59:21.177Z,10.55
2019-03-27T08:00:21.206Z,10.51
2019-03-27T08:01:21.236Z,10.31
2019-03-27T08:02:21.262Z,10.20
2019-03-27T08:03:21.281Z,10.31
2019-03-27T08:04:21.310Z,10.79
2019-03-27T08:05:21.346Z,11.26
2019-03-27T08:06:21.363Z,11.73
2019-03-27T08:07:26.721Z,11.24
2019-03-27T08:08:21.422Z,10.67
2019-03-27T08:09:23.096Z,10.52
2019-03-27T08:10:21.469Z,10.38
2019-03-27T08:11:21.537Z,10.07
2019-03-27T08:12:21.522Z,9.92
2019-03-27T08:13:21.550Z,9.96
2019-03-27T08:14:21.576Z,9.96
2019-03-27T08:15:21.604Z,9.96
2019-03-27T08:16:21.634Z,9.88
2019-03-27T08:17:21.657Z,9.84
2019-03-27T08:18:21.683Z,9.77
2019-03-27T08:19:21.709Z,9.67
2019-03-27T08:20:21.737Z,9.64
2019-03-27T08:21:21.767Z,9.59
2019-03-27T08:22:21.799Z,9.74
2019-03-27T08:23:21.820Z,9.78
2019-03-27T08:24:21.845Z,9.93
2019-03-27T08:25:21.871Z,9.89
2019-03-27T08:26:21.899Z,9.70
2019-03-27T08:27:21.925Z,9.59
2019-03-27T08:28:21.952Z,9.62
2019-03-27T08:29:21.980Z,10.20
2019-03-27T08:30:22.005Z,9.96
2019-03-27T08:31:22.031Z,9.74
2019-03-27T08:32:22.067Z,9.74
2019-03-27T08:33:22.088Z,10.58
2019-03-27T08:34:22.112Z,11.20
2019-03-27T08:35:22.141Z,11.94
2019-03-27T08:36:22.174Z,11.70
2019-03-27T08:37:22.192Z,12.34
2019-03-27T08:38:22.269Z,12.19
2019-03-27T08:39:22.255Z,12.69
2019-03-27T08:40:22.274Z,12.78
2019-03-27T08:41:22.310Z,13.78
2019-03-27T08:42:22.332Z,14.46
2019-03-27T08:43:25.449Z,14.24
2019-03-27T08:44:22.388Z,13.29
2019-03-27T08:45:22.416Z,13.76
2019-03-27T08:46:22.445Z,13.63
2019-03-27T08:47:22.473Z,13.93
2019-03-27T08:48:22.505Z,13.03
2019-03-27T08:49:22.718Z,12.74
2019-03-27T08:50:22.558Z,12.43
2019-03-27T08:51:22.593Z,12.04
2019-03-27T08:52:22.618Z,12.63
2019-03-27T08:53:22.647Z,12.56
2019-03-27T08:54:22.675Z,13.44
2019-03-27T08:55:22.706Z,12.96
2019-03-27T08:56:22.740Z,12.31
2019-03-27T08:57:22.763Z,11.79
2019-03-27T08:58:22.793Z,11.30
2019-03-27T08:59:22.828Z,12.36
2019-03-27T09:00:22.852Z,12.80
2019-03-27T09:01:22.881Z,12.28
2019-03-27T09:02:22.912Z,13.47
2019-03-27T09:03:22.940Z,14.42
2019-03-27T09:04:22.972Z,14.30
2019-03-27T09:05:23.005Z,15.01
2019-03-27T09:06:33.032Z,15.51
2019-03-27T09:07:23.076Z,15.92
2019-03-27T09:08:23.087Z,16.52
2019-03-27T09:09:23.119Z,16.63
2019-03-27T09:10:23.150Z,16.10
2019-03-27T09:11:23.182Z,16.51
2019-03-27T09:12:23.210Z,16.16
2019-03-27T09:13:23.243Z,16.26
2019-03-27T09:14:23.273Z,16.11
2019-03-27T09:15:23.304Z,16.33
2019-03-27T09:16:23.343Z,15.89
2019-03-27T09:17:23.383Z,14.97
2019-03-27T09:18:24.109Z,14.42
2019-03-27T09:19:34.980Z,14.53
2019-03-27T09:20:23.461Z,13.62
2019-03-27T09:21:23.498Z,12.94
2019-03-27T09:22:23.524Z,12.48
2019-03-27T09:23:23.558Z,12.10
2019-03-27T09:24:23.589Z,11.89
2019-03-27T09:25:23.623Z,11.98
2019-03-27T09:26:23.653Z,13.78
2019-03-27T09:27:23.684Z,14.87
2019-03-27T09:28:23.718Z,15.95
2019-03-27T09:29:23.757Z,16.77
2019-03-27T09:30:23.780Z,16.74
2019-03-27T09:31:23.811Z,16.97
2019-03-27T09:32:23.853Z,15.37
2019-03-27T09:33:23.876Z,13.86
2019-03-27T09:34:23.909Z,12.66
2019-03-27T09:35:23.943Z,12.77
2019-03-27T09:36:24.781Z,12.47
2019-03-27T09:37:24.004Z,13.37
2019-03-27T09:38:24.034Z,14.45
2019-03-27T09:39:24.064Z,15.44
2019-03-27T09:40:24.098Z,15.01
2019-03-27T09:41:24.146Z,14.20
2019-03-27T09:42:24.168Z,12.84
2019-03-27T09:43:24.190Z,13.09
2019-03-27T09:44:24.231Z,14.36
2019-03-27T09:45:24.255Z,14.56
2019-03-27T09:46:24.300Z,15.00
2019-03-27T09:47:24.534Z,15.86
2019-03-27T09:48:24.373Z,15.45
2019-03-27T09:49:24.382Z,15.30
2019-03-27T09:50:24.729Z,16.08
2019-03-27T09:51:24.444Z,16.40
2019-03-27T09:52:24.491Z,15.31
2019-03-27T09:53:24.507Z,15.00
2019-03-27T09:54:24.541Z,15.34
2019-03-27T09:55:24.570Z,15.98
2019-03-27T09:56:24.605Z,15.23
2019-03-27T09:57:24.636Z,14.44
2019-03-27T09:58:24.666Z,13.69
2019-03-27T09:59:24.698Z,13.39
2019-03-27T10:00:24.731Z,13.78
2019-03-27T10:01:24.771Z,13.97
2019-03-27T10:02:24.793Z,13.45
2019-03-27T10:03:24.834Z,13.24
2019-03-27T10:04:24.859Z,13.09
2019-03-27T10:05:24.892Z,12.91
2019-03-27T10:06:24.920Z,13.27
2019-03-27T10:07:24.954Z,13.76
2019-03-27T10:08:24.992Z,14.02
2019-03-27T10:09:25.219Z,14.31
2019-03-27T10:10:25.048Z,14.46
2019-03-27T10:11:25.077Z,14.74
2019-03-27T10:12:25.108Z,15.31
2019-03-27T10:13:25.138Z,14.89
2019-03-27T10:14:25.175Z,14.41
2019-03-27T10:15:25.199Z,15.05
2019-03-27T10:16:25.230Z,15.35
2019-03-27T10:17:25.281Z,15.27
2019-03-27T10:18:25.300Z,15.31
2019-03-27T10:19:25.332Z,14.95
2019-03-27T10:20:25.678Z,14.87
2019-03-27T10:21:25.390Z,15.05
2019-03-27T10:22:25.419Z,14.75
2019-03-27T10:23:25.452Z,14.39
2019-03-27T10:24:25.507Z,13.93
2019-03-27T10:25:25.515Z,13.68
2019-03-27T10:26:25.546Z,13.16
2019-03-27T10:27:25.583Z,12.83
2019-03-27T10:28:25.604Z,12.70
2019-03-27T10:29:25.640Z,13.11
2019-03-27T10:30:25.669Z,13.63
2019-03-27T10:31:25.701Z,14.30
2019-03-27T10:32:25.730Z,14.87
2019-03-27T10:33:25.760Z,15.26
2019-03-27T10:34:25.794Z,15.18
2019-03-27T10:35:25.828Z,14.98
2019-03-27T10:36:25.853Z,14.75
2019-03-27T10:37:25.884Z,14.23
2019-03-27T10:38:25.915Z,14.11
2019-03-27T10:39:25.950Z,14.60
2019-03-27T10:40:25.980Z,14.60
2019-03-27T10:41:26.011Z,13.63
2019-03-27T10:42:26.037Z,13.99
2019-03-27T10:43:26.065Z,13.94
2019-03-27T10:44:26.113Z,13.69
2019-03-27T10:45:26.128Z,13.55
2019-03-27T10:46:26.164Z,13.83
2019-03-27T10:47:26.190Z,14.48
2019-03-27T10:48:26.221Z,14.60
2019-03-27T10:49:26.251Z,14.69
2019-03-27T10:50:26.297Z,14.51
2019-03-27T10:51:26.313Z,14.26
2019-03-27T10:52:26.342Z,14.24
2019-03-27T10:53:26.371Z,14.39
2019-03-27T10:54:26.403Z,14.48
2019-03-27T10:55:26.434Z,14.48
2019-03-27T10:56:26.463Z,14.08
2019-03-27T10:57:26.502Z,13.78
2019-03-27T10:58:26.523Z,13.54
2019-03-27T10:59:26.615Z,13.25
2019-03-27T11:00:26.581Z,12.89
2019-03-27T11:01:26.616Z,12.66
2019-03-27T11:02:26.647Z,12.69
2019-03-27T11:03:26.669Z,12.73
2019-03-27T11:04:26.699Z,12.95
2019-03-27T11:05:26.729Z,12.89
2019-03-27T11:06:26.759Z,13.06
2019-03-27T11:07:26.788Z,13.02
2019-03-27T11:08:26.817Z,13.14
2019-03-27T11:09:26.848Z,13.25
2019-03-27T11:10:26.886Z,13.44
2019-03-27T11:11:26.909Z,13.44
2019-03-27T11:12:26.936Z,13.58
2019-03-27T11:13:26.966Z,13.69
2019-03-27T11:14:37.285Z,13.70
2019-03-27T11:15:27.022Z,13.70
2019-03-27T11:16:27.055Z,13.73
2019-03-27T11:17:27.081Z,13.78
2019-03-27T11:18:27.117Z,13.70
2019-03-27T11:19:27.139Z,14.06
2019-03-27T11:20:31.291Z,14.41
2019-03-27T11:21:27.198Z,14.93
2019-03-27T11:22:27.233Z,15.27
2019-03-27T11:23:27.255Z,15.45
2019-03-27T11:24:27.284Z,15.56
2019-03-27T11:25:27.358Z,15.81
2019-03-27T11:26:27.342Z,16.33
2019-03-27T11:27:27.372Z,16.06
2019-03-27T11:28:27.401Z,16.13
2019-03-27T11:29:27.432Z,16.44
2019-03-27T11:30:27.468Z,16.69
2019-03-27T11:31:27.491Z,16.67
2019-03-27T11:32:27.521Z,16.85
2019-03-27T11:33:29.040Z,16.74
2019-03-27T11:34:27.578Z,16.87
2019-03-27T11:35:27.613Z,16.21
2019-03-27T11:36:27.644Z,16.00
2019-03-27T11:37:27.675Z,15.22
2019-03-27T11:38:27.702Z,15.01
2019-03-27T11:39:27.780Z,14.59
2019-03-27T11:40:27.764Z,14.33
2019-03-27T11:41:27.793Z,14.16
2019-03-27T11:42:27.829Z,14.23
2019-03-27T11:43:27.854Z,14.46
2019-03-27T11:44:27.884Z,15.00
2019-03-27T11:45:27.915Z,15.26
2019-03-27T11:46:27.944Z,15.07
2019-03-27T11:47:27.979Z,14.90
2019-03-27T11:48:28.003Z,14.67
2019-03-27T11:49:28.033Z,14.63
2019-03-27T11:50:28.082Z,14.45
2019-03-27T11:51:28.105Z,14.26
2019-03-27T11:52:29.671Z,14.16
2019-03-27T11:53:28.152Z,14.39
2019-03-27T11:54:28.188Z,14.52
2019-03-27T11:55:28.215Z,14.63
2019-03-27T11:56:28.249Z,14.41
2019-03-27T11:57:28.276Z,14.34
2019-03-27T11:58:28.311Z,15.02
2019-03-27T11:59:28.333Z,15.15
2019-03-27T12:00:28.370Z,15.23
2019-03-27T12:01:39.282Z,15.30
2019-03-27T12:02:28.426Z,15.52
2019-03-27T12:03:28.453Z,16.08
2019-03-27T12:04:28.481Z,15.88
2019-03-27T12:05:28.510Z,16.29
2019-03-27T12:06:28.539Z,15.92
2019-03-27T12:07:28.573Z,15.53
2019-03-27T12:08:28.608Z,15.13
2019-03-27T12:09:28.632Z,14.77
2019-03-27T12:10:28.667Z,14.24
2019-03-27T12:11:28.692Z,14.05
2019-03-27T12:12:28.721Z,13.97
2019-03-27T12:13:28.751Z,14.42
2019-03-27T12:14:28.784Z,14.31
2019-03-27T12:15:28.807Z,14.94
2019-03-27T12:16:28.839Z,14.64
2019-03-27T12:17:28.869Z,14.19
2019-03-27T12:18:31.833Z,13.91
2019-03-27T12:19:28.928Z,13.76
2019-03-27T12:20:28.958Z,15.18
2019-03-27T12:21:28.991Z,16.00
2019-03-27T12:22:29.015Z,16.48
2019-03-27T12:23:29.146Z,16.22
2019-03-27T12:24:29.076Z,15.63
2019-03-27T12:25:29.111Z,16.29
2019-03-27T12:26:29.135Z,16.99
2019-03-27T12:27:29.165Z,16.99
2019-03-27T12:28:29.205Z,17.54
2019-03-27T12:29:29.225Z,17.42
2019-03-27T12:30:29.265Z,17.84
2019-03-27T12:31:29.285Z,17.92
2019-03-27T12:32:29.313Z,17.21
2019-03-27T12:33:29.348Z,16.92
2019-03-27T12:34:29.376Z,16.49
2019-03-27T12:35:29.406Z,15.55
2019-03-27T12:36:29.435Z,14.83
2019-03-27T12:37:29.468Z,14.49
2019-03-27T12:38:29.502Z,14.70
2019-03-27T12:39:29.535Z,14.95
2019-03-27T12:40:29.559Z,15.86
2019-03-27T12:41:32.799Z,16.66
2019-03-27T12:42:29.621Z,17.24
2019-03-27T12:43:29.652Z,17.22
2019-03-27T12:44:29.682Z,17.10
2019-03-27T12:45:29.710Z,16.29
2019-03-27T12:46:29.743Z,15.83
2019-03-27T12:47:29.773Z,15.60
2019-03-27T12:48:29.805Z,15.44
2019-03-27T12:49:29.832Z,14.98
2019-03-27T12:50:29.866Z,14.46
2019-03-27T12:51:29.901Z,14.26
2019-03-27T12:52:29.924Z,14.09
2019-03-27T12:53:29.960Z,14.02
2019-03-27T12:54:29.987Z,13.83
2019-03-27T12:55:30.018Z,13.86
2019-03-27T12:56:30.047Z,13.81
2019-03-27T12:57:30.075Z,13.68
2019-03-27T12:58:30.105Z,13.68
2019-03-27T12:59:30.143Z,13.63
2019-03-27T13:00:30.166Z,13.60
2019-03-27T13:01:30.194Z,13.76
2019-03-27T13:02:30.225Z,14.41
2019-03-27T13:03:30.254Z,14.45
2019-03-27T13:04:30.281Z,14.23
2019-03-27T13:05:30.312Z,14.24
2019-03-27T13:06:30.348Z,14.03
2019-03-27T13:07:30.368Z,14.11
2019-03-27T13:08:30.398Z,14.79
2019-03-27T13:09:30.427Z,15.35